Time;durP1;ratioP1;P1;durP2;ratioP2;P2;SDS_P1;SDS_P2;PMS_P1;PMS_P2;Temp;Humidity;BMP_temperature;BMP_pressure;BME280_temperature;BME280_humidity;BME280_pressure;Samples;Min_cycle;Max_cycle;Signal;HPM_P1;HPM_P2
2023/07/06 00:01:25;;;;;;;5.10;1.88;;;19.10;97.50;;;;;;5113034;28;20027;-72
2023/07/06 00:03:51;;;;;;;2.40;1.98;;;19.10;97.30;;;;;;5112296;28;20017;-76
2023/07/06 00:06:17;;;;;;;2.90;1.83;;;19.10;97.20;;;;;;5112950;28;20027;-72
2023/07/06 00:08:43;;;;;;;3.33;1.77;;;19.10;97.30;;;;;;5114680;28;20516;-71
2023/07/06 00:11:09;;;;;;;4.72;1.83;;;19.10;97.20;;;;;;5116470;28;20027;-71
2023/07/06 00:13:37;;;;;;;6.72;1.95;;;19.20;96.90;;;;;;5116823;28;20027;-71
2023/07/06 00:16:02;;;;;;;3.08;1.90;;;19.20;96.80;;;;;;5116355;28;20019;-71
2023/07/06 00:18:29;;;;;;;3.58;1.35;;;19.20;96.70;;;;;;5116775;28;20023;-71
2023/07/06 00:20:57;;;;;;;3.15;1.70;;;19.20;96.40;;;;;;5116592;28;20023;-71
2023/07/06 00:23:23;;;;;;;2.45;1.70;;;19.20;96.40;;;;;;5116764;28;20031;-71
2023/07/06 00:25:49;;;;;;;5.13;1.60;;;19.20;96.40;;;;;;5116999;27;20012;-71
2023/07/06 00:28:24;;;;;;;2.75;1.58;;;19.20;96.40;;;;;;5118667;27;20027;-70
2023/07/06 00:33:18;;;;;;;5.32;2.00;;;19.20;96.40;;;;;;5116135;28;20456;-71
2023/07/06 00:35:44;;;;;;;4.22;1.67;;;19.20;96.40;;;;;;5116455;28;20016;-71
2023/07/06 00:38:14;;;;;;;3.78;1.90;;;19.10;96.60;;;;;;5115965;28;20023;-71
2023/07/06 00:40:41;;;;;;;3.15;1.88;;;19.10;96.60;;;;;;5116476;28;20028;-71
2023/07/06 00:43:12;;;;;;;3.70;2.08;;;19.10;96.80;;;;;;5119711;27;20102;-70
2023/07/06 00:45:38;;;;;;;3.67;2.00;;;19.10;96.90;;;;;;5135911;27;20076;-71
2023/07/06 00:48:12;;;;;;;4.63;1.45;;;19.10;97.10;;;;;;5135199;27;20527;-70
2023/07/06 00:50:37;;;;;;;3.85;1.90;;;19.10;97.00;;;;;;5137297;27;20520;-71
2023/07/06 00:53:12;;;;;;;3.22;2.10;;;19.10;97.20;;;;;;5136141;27;20105;-71
2023/07/06 00:55:42;;;;;;;4.22;2.10;;;19.10;97.10;;;;;;5136957;27;20099;-70
2023/07/06 00:58:18;;;;;;;3.50;2.00;;;19.10;97.30;;;;;;5136315;27;20019;-71
2023/07/06 01:00:46;;;;;;;2.42;1.70;;;19.10;97.40;;;;;;5118292;27;20486;-71
2023/07/06 01:03:12;;;;;;;3.53;1.70;;;19.10;97.30;;;;;;5136198;27;20031;-71
2023/07/06 01:05:40;;;;;;;4.05;1.60;;;19.10;97.40;;;;;;5136543;27;20098;-71
2023/07/06 01:08:15;;;;;;;2.83;1.80;;;19.00;97.60;;;;;;5136241;27;20027;-71
2023/07/06 01:10:43;;;;;;;5.00;1.73;;;19.00;97.70;;;;;;5136514;27;20072;-71
2023/07/06 01:13:09;;;;;;;3.13;1.70;;;19.00;97.90;;;;;;5136164;27;20023;-71
2023/07/06 01:15:41;;;;;;;3.03;1.75;;;19.00;98.20;;;;;;5136450;27;20019;-71
2023/07/06 01:18:17;;;;;;;2.88;1.52;;;19.00;98.30;;;;;;5136091;27;20098;-71
2023/07/06 01:21:09;;;;;;;3.35;1.85;;;19.00;98.60;;;;;;5135898;27;20046;-71
2023/07/06 01:23:37;;;;;;;;;;;19.00;98.70;;;;;;5124330;27;20385;-71
2023/07/06 01:26:12;;;;;;;2.50;1.45;;;19.00;98.60;;;;;;5135798;27;19899;-71
2023/07/06 01:28:56;;;;;;;2.35;1.60;;;19.00;98.60;;;;;;5136453;27;20015;-71
2023/07/06 01:32:01;;;;;;;2.70;1.45;;;18.90;98.70;;;;;;5135750;27;20078;-71
2023/07/06 01:34:48;;;;;;;2.47;1.48;;;18.90;98.90;;;;;;5136087;27;20023;-71
2023/07/06 01:37:29;;;;;;;2.92;1.58;;;18.90;98.70;;;;;;5135596;27;20050;-71
2023/07/06 01:39:59;;;;;;;2.43;1.50;;;18.90;98.70;;;;;;5136002;27;20022;-71
2023/07/06 01:42:26;;;;;;;2.20;1.27;;;18.90;98.60;;;;;;5135978;27;20110;-71
2023/07/06 01:44:55;;;;;;;2.95;1.50;;;18.90;98.80;;;;;;5136188;27;20023;-71
2023/07/06 01:47:21;;;;;;;2.42;1.60;;;18.90;98.80;;;;;;5135288;27;20047;-71
2023/07/06 01:49:48;;;;;;;3.63;1.77;;;18.90;98.60;;;;;;5135675;27;20030;-71
2023/07/06 01:52:50;;;;;;;2.65;1.80;;;19.00;98.70;;;;;;5116896;27;20035;-71
2023/07/06 01:55:50;;;;;;;2.75;1.58;;;19.00;98.80;;;;;;5135209;27;20023;-72
2023/07/06 01:58:25;;;;;;;2.17;1.38;;;18.90;99.20;;;;;;5103191;27;20031;-71
2023/07/06 02:01:13;;;;;;;2.63;1.70;;;18.80;99.70;;;;;;5135438;27;20023;-71
2023/07/06 02:03:41;;;;;;;2.85;1.52;;;18.80;99.90;;;;;;5135182;27;20507;-71
2023/07/06 02:06:08;;;;;;;6.55;1.48;;;18.70;99.90;;;;;;5134906;27;20029;-71
2023/07/06 02:08:41;;;;;;;2.08;1.58;;;18.70;99.90;;;;;;5135144;27;20107;-71
2023/07/06 02:11:07;;;;;;;2.22;1.52;;;18.70;99.90;;;;;;5134803;27;20030;-71
2023/07/06 02:13:33;;;;;;;5.40;1.80;;;18.60;99.90;;;;;;5135174;27;20029;-71
2023/07/06 02:15:59;;;;;;;2.33;1.75;;;18.60;99.90;;;;;;5134973;27;20515;-71
2023/07/06 02:18:25;;;;;;;3.22;1.83;;;18.60;99.90;;;;;;5134745;27;20057;-71
2023/07/06 02:20:53;;;;;;;3.63;1.60;;;18.50;99.90;;;;;;5135123;27;20019;-71
2023/07/06 02:23:19;;;;;;;2.10;1.30;;;18.50;99.90;;;;;;5134635;27;20105;-71
2023/07/06 02:25:45;;;;;;;2.55;1.50;;;18.50;99.90;;;;;;5131972;27;20046;-71
2023/07/06 02:28:10;;;;;;;3.50;1.75;;;18.40;99.90;;;;;;5114261;28;20081;-70
2023/07/06 02:30:37;;;;;;;3.17;1.60;;;18.40;99.90;;;;;;5113480;28;20381;-71
2023/07/06 02:33:03;;;;;;;2.95;1.88;;;18.40;99.90;;;;;;5113916;28;20028;-71
2023/07/06 02:35:29;;;;;;;3.05;1.60;;;18.30;99.90;;;;;;5114362;28;20111;-71
2023/07/06 02:37:54;;;;;;;3.50;1.90;;;18.30;99.90;;;;;;5114402;28;20022;-71
2023/07/06 02:40:20;;;;;;;5.55;1.67;;;18.20;99.90;;;;;;5113961;28;20055;-71
2023/07/06 02:42:46;;;;;;;1.92;1.30;;;18.30;99.90;;;;;;5122161;27;20068;-71
2023/07/06 02:45:11;;;;;;;3.13;1.63;;;18.30;99.90;;;;;;5113475;28;20052;-71
2023/07/06 02:47:38;;;;;;;2.92;1.70;;;18.20;99.90;;;;;;5113712;28;20051;-71
2023/07/06 02:50:11;;;;;;;2.25;1.60;;;18.20;99.90;;;;;;5113562;28;20391;-75
2023/07/06 02:52:37;;;;;;;3.28;2.00;;;18.20;99.90;;;;;;5113864;28;20085;-71
2023/07/06 02:55:04;;;;;;;3.40;1.80;;;18.30;99.90;;;;;;5113911;28;20038;-71
2023/07/06 02:57:31;;;;;;;2.28;1.75;;;18.20;99.90;;;;;;5113778;28;20028;-71
2023/07/06 02:59:57;;;;;;;3.72;1.70;;;18.20;99.90;;;;;;5113776;28;20118;-71
2023/07/06 03:02:23;;;;;;;2.95;1.85;;;18.20;99.90;;;;;;5113443;28;20051;-71
2023/07/06 03:04:49;;;;;;;3.50;1.90;;;18.20;99.90;;;;;;5113646;28;20015;-71
2023/07/06 03:07:15;;;;;;;4.45;2.10;;;18.20;99.90;;;;;;5113145;28;20107;-71
2023/07/06 03:09:42;;;;;;;6.00;1.95;;;18.20;99.90;;;;;;5113694;28;20114;-71
2023/07/06 03:12:09;;;;;;;2.97;1.60;;;18.20;99.90;;;;;;5113169;28;20109;-72
2023/07/06 03:14:34;;;;;;;4.55;2.05;;;18.20;99.90;;;;;;5113450;28;20028;-72
2023/07/06 03:17:00;;;;;;;3.85;1.55;;;18.20;99.90;;;;;;5113860;28;20081;-71
2023/07/06 03:19:26;;;;;;;2.55;1.70;;;18.20;99.90;;;;;;5112812;28;20078;-71
2023/07/06 03:21:52;;;;;;;5.15;1.83;;;18.10;99.90;;;;;;5113430;28;20023;-72
2023/07/06 03:24:18;;;;;;;3.35;1.90;;;18.20;99.90;;;;;;5112938;28;20106;-71
2023/07/06 03:26:44;;;;;;;2.85;2.05;;;18.20;99.90;;;;;;5113237;28;20024;-71
2023/07/06 03:29:12;;;;;;;2.60;2.13;;;18.20;99.90;;;;;;5113032;28;20030;-73
2023/07/06 03:31:38;;;;;;;3.30;1.92;;;18.20;99.90;;;;;;5113048;28;20036;-72
2023/07/06 03:34:07;;;;;;;3.90;1.63;;;18.20;99.90;;;;;;5112917;28;20031;-71
2023/07/06 03:36:34;;;;;;;3.72;1.70;;;18.20;99.90;;;;;;5113368;28;20027;-72
2023/07/06 03:39:01;;;;;;;2.22;1.70;;;18.20;99.90;;;;;;5113287;28;20028;-72
2023/07/06 03:41:26;;;;;;;3.65;1.80;;;18.20;99.90;;;;;;5112539;28;20026;-72
2023/07/06 03:43:56;;;;;;;3.95;2.00;;;18.10;99.90;;;;;;5113082;28;20020;-72
2023/07/06 03:46:26;;;;;;;3.38;2.03;;;18.10;99.90;;;;;;5112581;28;20073;-72
2023/07/06 03:48:51;;;;;;;2.70;1.95;;;18.20;99.90;;;;;;5113211;28;20073;-71
2023/07/06 03:51:17;;;;;;;2.85;1.75;;;18.10;99.90;;;;;;5112930;28;20019;-71
2023/07/06 03:53:46;;;;;;;3.63;1.80;;;18.10;99.90;;;;;;5112767;28;20372;-71
2023/07/06 03:56:13;;;;;;;2.53;1.73;;;18.10;99.90;;;;;;5112685;28;20023;-72
2023/07/06 03:58:39;;;;;;;5.78;2.03;;;18.10;99.90;;;;;;5112796;28;20024;-72
2023/07/06 04:01:06;;;;;;;2.63;1.80;;;18.10;99.90;;;;;;5113540;28;20077;-71
2023/07/06 04:03:32;;;;;;;3.80;1.90;;;18.10;99.90;;;;;;5112815;28;20363;-73
2023/07/06 04:06:01;;;;;;;3.55;2.10;;;18.10;99.90;;;;;;5113144;28;20110;-72
2023/07/06 04:08:26;;;;;;;4.85;1.90;;;18.10;99.90;;;;;;5112394;28;20095;-73
2023/07/06 04:10:52;;;;;;;5.63;1.80;;;18.10;99.90;;;;;;5112944;28;20114;-73
2023/07/06 04:13:18;;;;;;;3.08;1.75;;;18.10;99.90;;;;;;5112237;28;20031;-73
2023/07/06 04:15:46;;;;;;;3.25;1.90;;;18.10;99.90;;;;;;5112635;28;20130;-72
2023/07/06 04:18:15;;;;;;;3.83;1.80;;;18.10;99.90;;;;;;5112548;28;20557;-73
2023/07/06 04:20:41;;;;;;;2.30;1.63;;;18.10;99.90;;;;;;5112906;28;20456;-72
2023/07/06 04:23:09;;;;;;;4.45;2.03;;;18.10;99.90;;;;;;5112527;28;20403;-72
2023/07/06 04:25:35;;;;;;;4.65;1.58;;;18.20;99.90;;;;;;5096911;28;20471;-72
2023/07/06 04:28:07;;;;;;;2.90;1.70;;;18.20;99.90;;;;;;5112853;28;20466;-72
2023/07/06 04:30:45;;;;;;;2.88;1.85;;;18.30;99.90;;;;;;5112453;28;20023;-73
2023/07/06 04:33:16;;;;;;;3.10;1.90;;;18.30;99.90;;;;;;5112996;28;20509;-76
2023/07/06 04:35:42;;;;;;;2.28;1.77;;;18.40;99.90;;;;;;5112885;28;20076;-73
2023/07/06 04:38:11;;;;;;;4.57;2.20;;;18.50;99.90;;;;;;5112842;28;20028;-72
2023/07/06 04:40:42;;;;;;;3.47;2.05;;;18.60;99.90;;;;;;5118219;28;20102;-72
2023/07/06 04:43:10;;;;;;;5.60;2.20;;;18.60;99.90;;;;;;5133355;28;20023;-72
2023/07/06 04:45:36;;;;;;;3.70;2.20;;;18.70;99.90;;;;;;5130474;28;20055;-71
2023/07/06 04:48:03;;;;;;;4.60;2.00;;;18.70;99.90;;;;;;5133310;28;20031;-72
2023/07/06 04:50:31;;;;;;;3.58;2.42;;;18.80;99.90;;;;;;5132719;28;20027;-71
2023/07/06 04:52:58;;;;;;;3.72;2.28;;;18.80;99.90;;;;;;5133029;28;20030;-72
2023/07/06 04:55:26;;;;;;;3.60;2.35;;;18.90;99.90;;;;;;5135476;27;20305;-73
2023/07/06 04:57:54;;;;;;;4.63;2.55;;;18.90;99.90;;;;;;5136716;27;20022;-72
2023/07/06 05:00:30;;;;;;;4.15;2.45;;;19.00;99.90;;;;;;5136334;27;20026;-73
2023/07/06 05:02:58;;;;;;;4.00;2.42;;;19.00;99.90;;;;;;5136845;27;20054;-72
2023/07/06 05:05:25;;;;;;;6.82;2.47;;;19.10;99.90;;;;;;5136062;27;20026;-73
2023/07/06 05:07:52;;;;;;;6.32;2.85;;;19.10;99.90;;;;;;5136386;27;20023;-73
2023/07/06 05:10:19;;;;;;;4.18;2.22;;;19.10;99.90;;;;;;5136318;27;20099;-73
2023/07/06 05:12:45;;;;;;;3.28;2.10;;;19.10;99.90;;;;;;5129622;27;20019;-73
2023/07/06 05:15:12;;;;;;;7.35;2.35;;;19.20;99.90;;;;;;5122553;27;20030;-73
2023/07/06 05:17:38;;;;;;;3.63;2.00;;;19.40;99.90;;;;;;5125095;27;20031;-73
2023/07/06 05:20:06;;;;;;;6.13;2.20;;;20.00;99.90;;;;;;5126422;27;20023;-71
2023/07/06 05:22:38;;;;;;;3.88;2.35;;;20.70;99.90;;;;;;5120861;27;20023;-74
2023/07/06 05:25:04;;;;;;;3.20;2.13;;;21.00;99.90;;;;;;5125547;27;20024;-72
2023/07/06 05:27:31;;;;;;;4.63;2.05;;;20.90;98.80;;;;;;5120774;27;20034;-73
2023/07/06 05:29:57;;;;;;;4.55;1.95;;;20.80;98.80;;;;;;5127143;27;20111;-73
2023/07/06 05:32:22;;;;;;;4.35;2.38;;;20.70;98.40;;;;;;5127924;27;20038;-73
2023/07/06 05:34:48;;;;;;;3.30;2.10;;;20.60;98.40;;;;;;5119441;27;20028;-72
2023/07/06 05:37:14;;;;;;;3.97;2.30;;;20.40;98.50;;;;;;5124643;27;20098;-73
2023/07/06 05:39:39;;;;;;;6.10;2.17;;;20.30;98.90;;;;;;5126343;27;20134;-72
2023/07/06 05:42:05;;;;;;;3.03;2.08;;;20.20;99.40;;;;;;5124813;27;20024;-72
2023/07/06 05:44:31;;;;;;;5.13;2.20;;;20.10;99.70;;;;;;5124160;27;20036;-72
2023/07/06 05:46:57;;;;;;;6.30;2.10;;;20.00;99.90;;;;;;5122987;27;20119;-72
2023/07/06 05:49:22;;;;;;;4.75;2.47;;;20.00;99.90;;;;;;5126536;27;20031;-73
2023/07/06 05:51:48;;;;;;;4.40;2.20;;;19.90;99.90;;;;;;5125231;27;20023;-72
2023/07/06 05:54:13;;;;;;;6.28;2.40;;;19.90;99.90;;;;;;5125718;27;20511;-72
2023/07/06 05:56:41;;;;;;;3.28;2.20;;;19.90;99.90;;;;;;5126201;27;20020;-72
2023/07/06 05:59:08;;;;;;;8.02;2.35;;;19.80;99.90;;;;;;5121511;27;20462;-72
2023/07/06 06:01:34;;;;;;;6.32;2.75;;;19.70;99.90;;;;;;5125735;27;20034;-72
2023/07/06 06:04:01;;;;;;;6.65;3.15;;;19.80;99.90;;;;;;5123475;27;20118;-71
2023/07/06 06:06:27;;;;;;;6.93;2.60;;;19.80;99.90;;;;;;5123643;27;20031;-72
2023/07/06 06:08:54;;;;;;;5.35;2.50;;;19.70;99.90;;;;;;5125945;27;20375;-72
2023/07/06 06:11:20;;;;;;;6.60;2.75;;;19.80;99.90;;;;;;5123302;27;20110;-75
2023/07/06 06:13:47;;;;;;;6.00;2.22;;;19.80;99.90;;;;;;5114654;28;20036;-72
2023/07/06 06:16:13;;;;;;;3.22;2.13;;;19.80;99.90;;;;;;5114660;28;20028;-71
2023/07/06 06:18:39;;;;;;;3.58;2.15;;;19.80;99.90;;;;;;5119619;27;20027;-72
2023/07/06 06:21:06;;;;;;;5.82;2.38;;;19.90;99.90;;;;;;5132680;27;20054;-71
2023/07/06 06:23:32;;;;;;;8.13;2.45;;;19.90;99.60;;;;;;5134889;27;20478;-71
2023/07/06 06:25:58;;;;;;;3.40;2.08;;;19.90;99.40;;;;;;5131532;27;20053;-72
2023/07/06 06:28:24;;;;;;;6.63;2.40;;;20.10;99.30;;;;;;5134848;27;20102;-72
2023/07/06 06:30:51;;;;;;;3.33;2.05;;;20.50;98.80;;;;;;5134798;27;20038;-71
2023/07/06 06:33:17;;;;;;;3.67;2.10;;;20.90;96.90;;;;;;5127814;27;20111;-72
2023/07/06 06:35:44;;;;;;;3.97;2.55;;;21.30;95.50;;;;;;5123658;27;20024;-73
2023/07/06 06:38:11;;;;;;;3.58;2.40;;;21.40;94.70;;;;;;5104550;27;20031;-72
2023/07/06 06:40:37;;;;;;;6.30;2.50;;;21.50;94.80;;;;;;5118694;27;20030;-72
2023/07/06 06:43:04;;;;;;;3.85;2.05;;;22.10;94.50;;;;;;5123617;27;20035;-72
2023/07/06 06:45:30;;;;;;;6.97;2.60;;;23.40;93.40;;;;;;5122598;27;20024;-72
2023/07/06 06:47:56;;;;;;;3.97;2.40;;;24.60;90.50;;;;;;5121549;27;20106;-72
2023/07/06 06:50:22;;;;;;;6.63;2.90;;;25.50;81.50;;;;;;5113917;28;20425;-72
2023/07/06 06:52:49;;;;;;;6.53;2.40;;;26.20;76.70;;;;;;5113381;28;20129;-72
2023/07/06 06:55:15;;;;;;;2.40;1.98;;;27.10;74.80;;;;;;5115102;27;20035;-72
2023/07/06 06:57:41;;;;;;;4.75;2.55;;;28.30;67.50;;;;;;5116125;27;20032;-72
2023/07/06 07:00:10;;;;;;;6.50;2.58;;;29.10;61.90;;;;;;5113812;28;20024;-75
2023/07/06 07:02:38;;;;;;;3.53;2.53;;;29.40;58.10;;;;;;5113564;28;20032;-75
2023/07/06 07:05:05;;;;;;;5.15;3.20;;;29.10;57.20;;;;;;5113616;28;20377;-72
2023/07/06 07:07:31;;;;;;;5.32;3.03;;;28.80;57.50;;;;;;5113129;28;20092;-74
2023/07/06 07:09:56;;;;;;;2.97;2.65;;;28.60;53.90;;;;;;5113961;28;20038;-72
2023/07/06 07:12:22;;;;;;;5.30;2.95;;;27.80;58.30;;;;;;5095378;28;20031;-72
2023/07/06 07:14:48;;;;;;;3.75;2.70;;;27.40;57.50;;;;;;5113425;28;20479;-72
2023/07/06 07:17:14;;;;;;;6.20;2.70;;;26.80;59.10;;;;;;5116709;27;20472;-74
2023/07/06 07:19:40;;;;;;;6.72;2.60;;;26.50;60.30;;;;;;5127231;27;20027;-71
2023/07/06 07:22:06;;;;;;;5.00;2.75;;;26.20;59.30;;;;;;5122130;27;20032;-71
2023/07/06 07:24:33;;;;;;;4.45;2.70;;;25.60;60.70;;;;;;5124104;27;20075;-72
2023/07/06 07:27:00;;;;;;;6.72;2.72;;;25.50;62.10;;;;;;5133730;27;20020;-72
2023/07/06 07:29:26;;;;;;;7.55;3.67;;;25.10;62.40;;;;;;5117111;27;20115;-70
2023/07/06 07:31:52;;;;;;;5.45;3.00;;;25.00;62.90;;;;;;5113262;28;20120;-72
2023/07/06 07:34:19;;;;;;;3.85;3.08;;;24.90;64.30;;;;;;5113045;28;20038;-71
2023/07/06 07:36:45;;;;;;;4.38;2.78;;;24.60;63.90;;;;;;5118437;27;20023;-71
2023/07/06 07:39:11;;;;;;;4.50;2.60;;;24.40;64.00;;;;;;5133168;27;20088;-72
2023/07/06 07:41:37;;;;;;;5.60;2.88;;;24.10;65.60;;;;;;5133081;28;20027;-71
2023/07/06 07:44:02;;;;;;;3.55;2.80;;;24.40;65.10;;;;;;5133729;28;20364;-71
2023/07/06 07:46:29;;;;;;;4.60;3.00;;;24.50;65.10;;;;;;5132984;28;20051;-72
2023/07/06 07:48:56;;;;;;;5.47;3.00;;;24.50;64.10;;;;;;5133485;28;20102;-71
2023/07/06 07:51:24;;;;;;;4.38;2.92;;;24.60;62.90;;;;;;5133306;28;20053;-71
2023/07/06 07:53:53;;;;;;;4.75;3.17;;;24.60;63.00;;;;;;5126884;28;20028;-71
2023/07/06 07:56:19;;;;;;;4.75;3.20;;;24.90;62.50;;;;;;5112827;28;20016;-70
2023/07/06 07:58:48;;;;;;;5.05;3.80;;;25.60;61.90;;;;;;5112338;28;20042;-70
2023/07/06 08:01:16;;;;;;;5.47;3.15;;;25.90;59.40;;;;;;5094374;28;20035;-70
2023/07/06 08:03:42;;;;;;;6.10;3.83;;;26.70;57.90;;;;;;5112251;28;20115;-71
2023/07/06 08:06:11;;;;;;;5.25;4.00;;;26.80;56.20;;;;;;5112797;28;20035;-71
2023/07/06 08:08:38;;;;;;;5.68;3.10;;;27.10;55.80;;;;;;5112167;28;20024;-70
2023/07/06 08:11:06;;;;;;;5.40;3.85;;;27.40;56.30;;;;;;5112577;28;20104;-70
2023/07/06 08:13:33;;;;;;;6.05;3.40;;;27.40;55.10;;;;;;5112189;28;20020;-70
2023/07/06 08:16:00;;;;;;;10.82;4.03;;;27.30;55.40;;;;;;5112734;28;20047;-70
2023/07/06 08:18:25;;;;;;;11.27;2.80;;;26.90;56.30;;;;;;5115112;28;20026;-70
2023/07/06 08:20:53;;;;;;;5.28;3.03;;;26.80;57.90;;;;;;5112269;28;20031;-69
2023/07/06 08:23:24;;;;;;;10.15;2.35;;;26.90;57.60;;;;;;5112703;28;20150;-70
2023/07/06 08:25:53;;;;;;;5.32;3.00;;;27.10;58.30;;;;;;5116721;28;20050;-70
2023/07/06 08:28:31;;;;;;;5.45;3.00;;;27.10;55.20;;;;;;5117894;28;20024;-70
2023/07/06 08:31:03;;;;;;;5.47;2.75;;;26.80;54.80;;;;;;5115801;28;20046;-70
2023/07/06 08:33:35;;;;;;;3.70;2.97;;;26.90;54.50;;;;;;5122603;27;20024;-71
2023/07/06 08:36:04;;;;;;;6.50;3.38;;;26.90;53.30;;;;;;5125104;27;20031;-72
2023/07/06 08:38:31;;;;;;;4.72;3.22;;;26.90;53.20;;;;;;5108496;27;20049;-71
2023/07/06 08:41:03;;;;;;;5.82;3.28;;;26.90;54.40;;;;;;5124797;27;20016;-70
2023/07/06 08:43:30;;;;;;;7.88;3.88;;;27.00;53.90;;;;;;5125024;27;20072;-69
2023/07/06 08:46:02;;;;;;;4.85;3.20;;;27.00;53.00;;;;;;5125039;27;20421;-70
2023/07/06 08:48:33;;;;;;;7.82;3.20;;;26.80;52.20;;;;;;5127038;27;20019;-71
2023/07/06 08:51:08;;;;;;;10.48;4.18;;;26.70;52.10;;;;;;5134905;27;20107;-70
2023/07/06 08:53:34;;;;;;;5.28;3.70;;;26.70;48.60;;;;;;5121981;27;20042;-71
2023/07/06 08:56:05;;;;;;;5.78;4.10;;;26.50;49.00;;;;;;5115764;28;20024;-70
2023/07/06 08:58:33;;;;;;;4.55;3.60;;;26.60;49.00;;;;;;5118108;27;20472;-70
2023/07/06 09:01:10;;;;;;;4.90;3.85;;;26.50;51.40;;;;;;5116515;28;20058;-70
2023/07/06 09:03:44;;;;;;;6.68;3.90;;;26.50;52.90;;;;;;5115519;28;20451;-70
2023/07/06 09:06:22;;;;;;;5.78;3.40;;;26.70;52.20;;;;;;5116183;28;20076;-71
2023/07/06 09:08:53;;;;;;;7.30;3.42;;;26.70;55.10;;;;;;5115708;28;20460;-71
2023/07/06 09:11:21;;;;;;;7.75;3.00;;;26.50;57.20;;;;;;5117089;28;20027;-70
2023/07/06 09:13:50;;;;;;;7.53;3.55;;;26.70;56.30;;;;;;5115171;28;20459;-70
2023/07/06 09:16:19;;;;;;;4.57;3.40;;;26.60;56.60;;;;;;5115836;28;20028;-70
2023/07/06 09:18:48;;;;;;;7.03;3.72;;;26.20;52.30;;;;;;5115404;28;20431;-70
2023/07/06 09:21:17;;;;;;;4.13;2.83;;;26.20;54.10;;;;;;5115655;28;20035;-70
2023/07/06 09:23:47;;;;;;;4.43;3.00;;;26.30;54.50;;;;;;5115213;28;20027;-71
2023/07/06 09:26:33;;;;;;;6.78;3.38;;;26.40;54.50;;;;;;5115598;28;20029;-71
2023/07/06 09:29:18;;;;;;;5.82;3.13;;;26.20;56.30;;;;;;5115268;28;20016;-71
2023/07/06 09:31:48;;;;;;;6.28;3.65;;;26.20;58.20;;;;;;5115186;28;20337;-71
2023/07/06 09:34:28;;;;;;;3.80;2.67;;;26.20;55.40;;;;;;5097360;28;20118;-70
2023/07/06 09:36:54;;;;;;;7.38;3.55;;;26.10;54.50;;;;;;5115114;28;20020;-71
2023/07/06 09:39:20;;;;;;;6.75;3.75;;;25.90;55.40;;;;;;5115191;28;20085;-71
2023/07/06 09:41:46;;;;;;;6.38;3.40;;;25.90;55.60;;;;;;5114250;28;20023;-71
2023/07/06 09:44:30;;;;;;;6.32;3.30;;;26.00;54.80;;;;;;5115425;28;20027;-71
2023/07/06 09:46:58;;;;;;;5.55;3.28;;;25.90;54.20;;;;;;5114374;28;20066;-71
2023/07/06 09:49:32;;;;;;;4.65;3.20;;;26.20;53.20;;;;;;5115230;28;20023;-71
2023/07/06 09:52:12;;;;;;;5.00;3.30;;;26.30;54.20;;;;;;5114705;28;20046;-70
2023/07/06 09:54:51;;;;;;;4.95;3.17;;;26.50;53.60;;;;;;5114841;28;20037;-72
2023/07/06 09:57:17;;;;;;;10.98;3.40;;;26.50;51.60;;;;;;5114898;28;20024;-70
2023/07/06 09:59:49;;;;;;;5.90;3.42;;;26.60;51.80;;;;;;5114434;28;20030;-70
2023/07/06 10:02:39;;;;;;;4.70;3.00;;;26.70;51.30;;;;;;5114629;28;20038;-70
2023/07/06 10:05:26;;;;;;;4.68;3.17;;;26.70;48.80;;;;;;5114477;28;20359;-70
2023/07/06 10:08:11;;;;;;;5.15;3.30;;;26.70;46.90;;;;;;5113952;28;20035;-71
2023/07/06 10:11:12;;;;;;;6.00;3.25;;;26.80;47.90;;;;;;5114772;28;20278;-70
2023/07/06 10:13:53;;;;;;;5.60;3.45;;;27.00;47.70;;;;;;5079805;28;20102;-70
2023/07/06 10:16:34;;;;;;;4.53;3.20;;;27.00;47.30;;;;;;5114481;28;20031;-70
2023/07/06 10:19:14;;;;;;;6.13;3.17;;;27.10;48.00;;;;;;5113862;28;20023;-70
2023/07/06 10:21:45;;;;;;;3.55;3.10;;;27.10;47.20;;;;;;5114375;28;20065;-71
2023/07/06 10:24:30;;;;;;;4.68;3.40;;;27.20;47.90;;;;;;5114450;28;20049;-70
2023/07/06 10:26:59;;;;;;;4.00;3.00;;;27.10;47.20;;;;;;5116527;27;20053;-70
2023/07/06 10:29:31;;;;;;;4.17;3.13;;;27.10;46.10;;;;;;5114396;28;20027;-70
2023/07/06 10:32:04;;;;;;;7.38;3.17;;;26.90;46.40;;;;;;5113854;28;20084;-70
2023/07/06 10:34:55;;;;;;;3.80;2.95;;;26.90;45.80;;;;;;5126894;27;20035;-70
2023/07/06 10:37:24;;;;;;;7.22;3.17;;;27.00;44.40;;;;;;5134859;27;20358;-70
2023/07/06 10:40:25;;;;;;;3.75;3.00;;;27.00;42.10;;;;;;5134260;27;20088;-70
2023/07/06 10:43:16;;;;;;;5.55;2.88;;;27.00;42.60;;;;;;5134238;27;20103;-70
2023/07/06 10:45:49;;;;;;;4.07;3.10;;;27.10;41.90;;;;;;5133907;27;20023;-71
2023/07/06 10:48:21;;;;;;;7.38;3.28;;;27.10;41.80;;;;;;5134699;27;20058;-71
2023/07/06 10:51:18;;;;;;;7.50;3.03;;;27.00;42.20;;;;;;5133623;27;20366;-71
2023/07/06 10:53:52;;;;;;;5.20;2.75;;;27.10;42.70;;;;;;5133712;27;20027;-71
2023/07/06 10:56:21;;;;;;;5.07;3.13;;;27.10;42.30;;;;;;5134428;27;20023;-71
2023/07/06 10:58:59;;;;;;;4.10;2.90;;;27.20;43.80;;;;;;5116727;27;20023;-70
2023/07/06 11:01:37;;;;;;;5.95;3.40;;;27.20;43.30;;;;;;5113644;28;20028;-71
2023/07/06 11:04:44;;;;;;;4.93;3.42;;;27.20;43.60;;;;;;5113140;28;20694;-69
2023/07/06 11:07:44;;;;;;;6.45;3.70;;;27.30;45.20;;;;;;5113508;28;20020;-69
2023/07/06 11:10:27;;;;;;;5.20;3.25;;;27.30;46.40;;;;;;5108566;28;20027;-69
2023/07/06 11:13:04;;;;;;;3.67;3.03;;;27.40;45.90;;;;;;5113064;28;20024;-70
2023/07/06 11:15:35;;;;;;;6.45;3.33;;;27.40;45.30;;;;;;5113465;28;20116;-69
2023/07/06 11:18:21;;;;;;;5.35;3.38;;;27.40;45.80;;;;;;5112993;28;20352;-70
2023/07/06 11:20:51;;;;;;;4.55;3.30;;;27.40;46.70;;;;;;5113187;28;20020;-70
2023/07/06 11:23:19;;;;;;;;;;;27.40;46.30;;;;;;5113768;28;20016;-69
2023/07/06 11:25:50;;;;;;;6.10;2.85;;;27.30;45.50;;;;;;5113198;28;19945;-71
2023/07/06 11:28:22;;;;;;;5.95;2.88;;;27.30;46.10;;;;;;5113231;28;20460;-69
2023/07/06 11:30:51;;;;;;;4.95;2.78;;;27.40;45.10;;;;;;5112932;28;20080;-69
2023/07/06 11:33:36;;;;;;;4.78;3.10;;;27.40;45.00;;;;;;5113262;28;20028;-69
2023/07/06 11:36:08;;;;;;;3.45;2.85;;;27.40;45.30;;;;;;5112882;28;20480;-70
2023/07/06 11:39:15;;;;;;;5.22;3.00;;;27.30;45.00;;;;;;5112996;28;20027;-70
2023/07/06 11:41:53;;;;;;;4.75;3.42;;;27.50;46.00;;;;;;5083458;28;20079;-71
2023/07/06 11:44:44;;;;;;;4.07;3.35;;;27.50;44.70;;;;;;5113046;28;20033;-71
2023/07/06 11:47:19;;;;;;;4.38;3.30;;;27.40;44.10;;;;;;5112465;28;20057;-71
2023/07/06 11:49:47;;;;;;;9.02;3.63;;;27.50;44.30;;;;;;5112923;28;20099;-71
2023/07/06 11:52:57;;;;;;;8.20;3.28;;;27.40;44.50;;;;;;5112720;28;20106;-70
2023/07/06 11:55:34;;;;;;;4.27;3.33;;;27.40;44.90;;;;;;5105977;28;20100;-71
2023/07/06 11:58:18;;;;;;;4.97;3.10;;;27.40;45.30;;;;;;5094272;28;20436;-69
2023/07/06 12:00:54;;;;;;;4.40;2.90;;;27.20;44.80;;;;;;5112890;28;20043;-70
2023/07/06 12:03:26;;;;;;;6.75;3.15;;;27.10;46.10;;;;;;5114122;28;20044;-69
2023/07/06 12:05:55;;;;;;;6.60;3.50;;;27.10;45.90;;;;;;5116484;28;20012;-70
2023/07/06 12:08:29;;;;;;;8.60;3.45;;;27.10;46.30;;;;;;5116701;28;20016;-70
2023/07/06 12:11:00;;;;;;;4.85;3.22;;;27.10;47.00;;;;;;5098097;28;20096;-70
2023/07/06 12:13:25;;;;;;;7.15;3.10;;;27.20;46.30;;;;;;5117201;28;20065;-70
2023/07/06 12:16:15;;;;;;;6.13;3.25;;;27.20;45.90;;;;;;5116119;28;20015;-70
2023/07/06 12:18:44;;;;;;;6.03;3.22;;;27.10;45.60;;;;;;5115726;28;20081;-70
2023/07/06 12:21:31;;;;;;;4.00;3.03;;;27.10;45.40;;;;;;5116190;28;20016;-71
2023/07/06 12:24:06;;;;;;;3.83;3.10;;;27.10;46.30;;;;;;5118915;27;20016;-71
2023/07/06 12:26:34;;;;;;;7.47;2.95;;;27.10;44.70;;;;;;5116561;28;20019;-70
2023/07/06 12:29:02;;;;;;;4.15;3.00;;;26.90;45.10;;;;;;5097688;28;20038;-70
2023/07/06 12:31:30;;;;;;;4.22;3.28;;;26.90;45.60;;;;;;5116478;28;20409;-71
2023/07/06 12:34:00;;;;;;;3.70;3.25;;;26.90;45.60;;;;;;5116343;28;20059;-71
2023/07/06 12:36:33;;;;;;;5.32;3.95;;;26.90;45.50;;;;;;5116471;28;20022;-70
2023/07/06 12:39:00;;;;;;;4.68;3.25;;;26.80;45.40;;;;;;5116052;28;20102;-70
2023/07/06 12:41:31;;;;;;;4.45;3.10;;;26.70;45.30;;;;;;5132047;27;20023;-70
2023/07/06 12:43:57;;;;;;;4.60;3.35;;;26.70;46.00;;;;;;5136698;27;20079;-70
2023/07/06 12:46:23;;;;;;;5.78;3.30;;;26.70;46.40;;;;;;5107793;28;20072;-70
2023/07/06 12:48:52;;;;;;;6.40;3.58;;;26.70;45.90;;;;;;5095598;28;20027;-69
2023/07/06 12:51:21;;;;;;;4.05;3.20;;;26.70;44.80;;;;;;5095462;28;20024;-69
2023/07/06 12:53:49;;;;;;;4.80;3.33;;;26.70;45.40;;;;;;5095458;28;20578;-71
2023/07/06 12:56:17;;;;;;;6.57;3.25;;;26.70;46.60;;;;;;5093603;28;20048;-71
2023/07/06 12:59:02;;;;;;;5.82;3.50;;;26.80;47.10;;;;;;5094298;28;20024;-70
2023/07/06 13:01:45;;;;;;;3.33;2.92;;;26.80;47.10;;;;;;5095865;28;20475;-69
2023/07/06 13:04:13;;;;;;;6.78;3.20;;;26.80;46.70;;;;;;5095278;28;20217;-69
2023/07/06 13:06:53;;;;;;;4.47;3.13;;;26.80;47.70;;;;;;5095777;28;20031;-69
2023/07/06 13:09:20;;;;;;;3.90;3.08;;;26.80;47.20;;;;;;5095571;28;20020;-70